Flight Track Log - Related Links

Times and Time Zones

All times are in EDT time to prevent confusion due to time zone crossing. See the THY1536 flight status page for this flight to view local times or setup timezone preferences in your user account.

Time Position Orientation Groundspeed Altitude Reporting Facility
EDT Latitude Longitude Course Direction KTS MPH feet Rate Location/Type
Wed 03:49:00 PM 50.9278 8.0188 114° Southeast  Level Estimated
Wed 03:50:00 PM 50.8750 8.1961 115° Southeast  Level Estimated
Wed 03:51:00 PM 50.8220 8.3730 115° Southeast  Level Estimated
Wed 03:52:00 PM 50.7687 8.5494 115° Southeast  Level Estimated
Wed 03:53:00 PM 50.7152 8.7255 116° Southeast  Level Estimated
Wed 03:54:00 PM 50.6614 8.9011 116° Southeast  Level Estimated
Wed 03:55:00 PM 50.6073 9.0764 116° Southeast  Level Estimated
Wed 03:56:00 PM 50.5530 9.2512 116° Southeast  Level Estimated
Wed 03:57:00 PM 50.4984 9.4257 116° Southeast  Level Estimated
Wed 03:58:00 PM 50.4435 9.5997 116° Southeast  Level Estimated
Wed 03:59:00 PM 50.3884 9.7734 116° Southeast  Level Estimated
Wed 04:00:00 PM 50.3330 9.9466 117° Southeast  Level Estimated
Wed 04:01:00 PM 50.2774 10.1194 117° Southeast  Level Estimated
Wed 04:02:00 PM 50.2215 10.2918 117° Southeast  Level Estimated
Wed 04:03:00 PM 50.1653 10.4639 117° Southeast  Level Estimated
Wed 04:04:00 PM 50.1089 10.6355 117° Southeast  Level Estimated
Wed 04:05:00 PM 50.0523 10.8067 117° Southeast  Level Estimated
Wed 04:06:00 PM 49.9954 10.9775 117° Southeast  Level Estimated
Wed 04:07:00 PM 49.9382 11.1479 117° Southeast  Level Estimated
Wed 04:08:00 PM 49.8808 11.3179 118° Southeast  Level Estimated
Wed 04:09:00 PM 49.8232 11.4875 118° Southeast  Level Estimated
Wed 04:10:00 PM 49.7653 11.6567 118° Southeast  Level Estimated
Wed 04:11:00 PM 49.7071 11.8255 118° Southeast  Level Estimated
Wed 04:12:00 PM 49.6488 11.9938 118° Southeast  Level Estimated
Wed 04:13:00 PM 49.5901 12.1618 118° Southeast  Level Estimated
Wed 04:14:00 PM 49.5312 12.3294 118° Southeast  Level Estimated
Wed 04:15:00 PM 49.4721 12.4965 119° Southeast  Level Estimated
Wed 04:16:00 PM 49.4128 12.6633 119° Southeast  Level Estimated
Wed 04:17:00 PM 49.3532 12.8297 119° Southeast  Level Estimated
Wed 04:18:00 PM 49.2934 12.9956 119° Southeast  Level Estimated
Wed 04:19:00 PM 49.2333 13.1612 119° Southeast  Level Estimated
Wed 04:20:00 PM 49.1730 13.3263 119° Southeast  Level Estimated
Wed 04:21:00 PM 49.1124 13.4911 119° Southeast  Level Estimated
Wed 04:22:00 PM 49.0517 13.6554 119° Southeast  Level Estimated
Wed 04:23:00 PM 48.9907 13.8194 120° Southeast  Level Estimated
Wed 04:24:00 PM 48.9294 13.9829 120° Southeast  Level Estimated
Wed 04:25:00 PM 48.8680 14.1460 120° Southeast  Level Estimated
Wed 04:26:00 PM 48.8063 14.3088 120° Southeast  Level Estimated
Wed 04:27:00 PM 48.7443 14.4711 120° Southeast  Level Estimated
Wed 04:28:00 PM 48.6822 14.6331 120° Southeast  Level Estimated
Wed 04:29:00 PM 48.6198 14.7946 120° Southeast  Level Estimated
Wed 04:30:00 PM 48.5572 14.9557 120° Southeast  Level Estimated
Wed 04:31:00 PM 48.4944 15.1165 120° Southeast  Level Estimated
Wed 04:32:00 PM 48.4313 15.2768 121° Southeast  Level Estimated
Wed 04:33:00 PM 48.3680 15.4368 121° Southeast  Level Estimated
Wed 04:34:00 PM 48.3045 15.5963 121° Southeast  Level Estimated
Wed 04:35:00 PM 48.2408 15.7555 121° Southeast  Level Estimated
Wed 04:36:00 PM 48.1769 15.9142 121° Southeast  Level Estimated
Wed 04:37:00 PM 48.1127 16.0725 121° Southeast  Level Estimated
Wed 04:38:00 PM 48.0484 16.2305 121° Southeast  Level Estimated
Wed 04:39:00 PM 47.9838 16.3881 121° Southeast  Level Estimated
Wed 04:40:00 PM 47.9190 16.5452 122° Southeast  Level Estimated
Wed 04:41:00 PM 47.8539 16.7020 122° Southeast  Level Estimated
Wed 04:42:00 PM 47.7887 16.8584 122° Southeast  Level Estimated
Wed 04:43:00 PM 47.7233 17.0144 122° Southeast  Level Estimated
Wed 04:44:00 PM 47.6576 17.1700 122° Southeast  Level Estimated
Wed 04:45:00 PM 47.5918 17.3252 122° Southeast  Level Estimated
Wed 04:46:00 PM 47.5257 17.4800 122° Southeast  Level Estimated
Wed 04:47:00 PM 47.4594 17.6344 122° Southeast  Level Estimated
Wed 04:48:00 PM 47.3929 17.7885 122° Southeast  Level Estimated
Wed 04:49:00 PM 47.3262 17.9421 123° Southeast  Level Estimated
Wed 04:50:00 PM 47.2593 18.0954 123° Southeast  Level Estimated
Wed 04:51:00 PM 47.1922 18.2482 123° Southeast  Level Estimated
Wed 04:52:00 PM 47.1249 18.4007 123° Southeast  Level Estimated
Wed 04:53:00 PM 47.0574 18.5528 123° Southeast  Level Estimated
Wed 04:54:00 PM 46.9897 18.7045 123° Southeast  Level Estimated
Wed 04:55:00 PM 46.9218 18.8559 123° Southeast  Level Estimated
Wed 04:56:00 PM 46.8537 19.0068 123° Southeast  Level Estimated
Wed 04:57:00 PM 46.7854 19.1574 123° Southeast  Level Estimated
Wed 04:58:00 PM 46.7169 19.3076 124° Southeast  Level Estimated
Wed 04:59:00 PM 46.6482 19.4574 124° Southeast  Level Estimated
Wed 05:00:00 PM 46.5793 19.6068 124° Southeast  Level Estimated
Wed 05:01:00 PM 46.5103 19.7558 124° Southeast  Level Estimated
Wed 05:02:00 PM 46.4410 19.9045 124° Southeast  Level Estimated
Wed 05:03:00 PM 46.3715 20.0528 124° Southeast  Level Estimated
Wed 05:04:00 PM 46.3018 20.2007 124° Southeast  Level Estimated
Wed 05:05:00 PM 46.2320 20.3482 124° Southeast  Level Estimated
Wed 05:06:00 PM 46.1620 20.4953 124° Southeast  Level Estimated
Wed 05:07:00 PM 46.0917 20.6421 125° Southeast  Level Estimated
Wed 05:08:00 PM 46.0213 20.7885 125° Southeast  Level Estimated
Wed 05:09:00 PM 45.9507 20.9345 125° Southeast  Level Estimated
Wed 05:10:00 PM 45.8799 21.0802 125° Southeast  Level Estimated
Wed 05:11:00 PM 45.8089 21.2255 125° Southeast  Level Estimated
Wed 05:12:00 PM 45.7378 21.3704 125° Southeast  Level Estimated
Wed 05:13:00 PM 45.6665 21.5150 125° Southeast  Level Estimated
Wed 05:14:00 PM 45.5949 21.6591 125° Southeast  Level Estimated
Wed 05:15:00 PM 45.5232 21.8030 125° Southeast  Level Estimated
Wed 05:16:00 PM 45.4514 21.9464 126° Southeast  Level Estimated
Wed 05:17:00 PM 45.3793 22.0895 126° Southeast  Level Estimated
Wed 05:18:00 PM 45.3070 22.2322 126° Southeast  Level Estimated
Wed 05:19:00 PM 45.2346 22.3746 126° Southeast  Level Estimated
Wed 05:20:00 PM 45.1620 22.5166 126° Southeast  Level Estimated
Wed 05:21:00 PM 45.0893 22.6582 126° Southeast  Level Estimated
Wed 05:22:00 PM 45.0163 22.7994 126° Southeast  Level Estimated
Wed 05:23:00 PM 44.9432 22.9404 126° Southeast  Level Estimated
Wed 05:24:00 PM 44.8699 23.0809 126° Southeast  Level Estimated
Wed 05:25:00 PM 44.7965 23.2211 126° Southeast  Level Estimated
Wed 05:26:00 PM 44.7228 23.3609 127° Southeast  Level Estimated
Wed 05:27:00 PM 44.6490 23.5004 127° Southeast  Level Estimated
Wed 05:28:00 PM 44.5751 23.6395 127° Southeast  Level Estimated
Wed 05:29:00 PM 44.5009 23.7783 127° Southeast  Level Estimated
Wed 05:30:00 PM 44.4266 23.9167 127° Southeast  Level Estimated
Wed 05:31:00 PM 44.3521 24.0548 127° Southeast  Level Estimated
Wed 05:32:00 PM 44.2775 24.1925 127° Southeast  Level Estimated
Wed 05:33:00 PM 44.2027 24.3298 127° Southeast  Level Estimated
Wed 05:34:00 PM 44.1277 24.4669 127° Southeast  Level Estimated
Wed 05:35:00 PM 44.0526 24.6035 127° Southeast  Level Estimated
Wed 05:36:00 PM 43.9773 24.7398 127° Southeast  Level Estimated
Wed 05:37:00 PM 43.9019 24.8758 128° Southeast  Level Estimated
Wed 05:38:00 PM 43.8262 25.0114 128° Southeast  Level Estimated
Wed 05:39:00 PM 43.7505 25.1467 128° Southeast  Level Estimated
Wed 05:40:00 PM 43.6745 25.2817 128° Southeast  Level Estimated
Wed 05:41:00 PM 43.5984 25.4163 128° Southeast  Level Estimated
Wed 05:42:00 PM 43.5222 25.5505 128° Southeast  Level Estimated
Wed 05:43:00 PM 43.4458 25.6845 128° Southeast  Level Estimated
Wed 05:44:00 PM 43.3692 25.8180 128° Southeast  Level Estimated
Wed 05:45:00 PM 43.2925 25.9513 128° Southeast  Level Estimated
Wed 05:46:00 PM 43.2156 26.0842 128° Southeast  Level Estimated
Wed 05:47:00 PM 43.1386 26.2168 129° Southeast  Level Estimated
Wed 05:48:00 PM 43.0614 26.3490 129° Southeast  Level Estimated
Wed 05:49:00 PM 42.9841 26.4809 129° Southeast  Level Estimated
Wed 05:50:00 PM 42.9066 26.6125 129° Southeast  Level Estimated
Wed 05:51:00 PM 42.8290 26.7438 129° Southeast  Level Estimated
Wed 05:52:00 PM 42.7512 26.8747 129° Southeast  Level Estimated
Wed 05:53:00 PM 42.6732 27.0053 129° Southeast  Level Estimated
Wed 05:54:00 PM 42.5952 27.1355 129° Southeast  Level Estimated
Wed 05:55:00 PM 42.5169 27.2655 129° Southeast  Level Estimated
Wed 05:56:00 PM 42.4386 27.3951 129° Southeast  Level Estimated
Wed 05:57:00 PM 42.3601 27.5243 129° Southeast  Level Estimated
Wed 05:58:00 PM 42.2814 27.6533 129° Southeast  Level Estimated
Wed 05:59:00 PM 42.2026 27.7819 130° Southeast  Level Estimated
Wed 06:00:00 PM 42.1236 27.9103 130° Southeast  Level Estimated
Wed 06:01:00 PM 42.0445 28.0383 130° Southeast  Level Estimated
Wed 06:02:00 PM 41.9653 28.1660 130° Southeast  Level Estimated
Wed 06:03:00 PM 41.8859 28.2933 130° Southeast  Level Estimated
Wed 06:04:00 PM 41.8064 28.4204 130° Southeast  Level Estimated
Wed 06:05:00 PM 41.7267 28.5471 130° Southeast  Level Estimated
Wed 06:06:00 PM 41.6469 28.6735 130° Southeast  Level Estimated
Wed 06:07:00 PM 41.5670 28.7996 130° Southeast  Level Estimated
Wed 06:08:00 PM 41.4869 28.9254 130° Southeast  Level Estimated
Wed 06:09:00 PM 41.4067 29.0509 130° Southeast  Level Estimated
Wed 06:10:00 PM 41.3264 29.1761 130° Southeast  Level Estimated
Wed 06:11:00 PM 41.2459 29.3009 131° Southeast  Level Estimated
Wed 06:12:00 PM 41.1653 29.4255 131° Southeast  Level Estimated
Wed 06:13:00 PM 41.0845 29.5497 131° Southeast  Level Estimated
Wed 06:14:00 PM 41.0037 29.6737 131° Southeast  Level Estimated
Wed 06:15:00 PM 40.9227 29.7973 131° Southeast  Level Estimated
Wed 06:16:00 PM 40.8415 29.9206 131° Southeast  Level Estimated
Wed 06:17:00 PM 40.7602 30.0437 131° Southeast  Level Estimated
Wed 06:18:00 PM 40.6788 30.1664 131° Southeast  Level Estimated
Wed 06:19:00 PM 40.5973 30.2889 131° Southeast  Level Estimated
Wed 06:20:00 PM 40.5156 30.4110 131° Southeast  Level Estimated
Wed 06:21:00 PM 40.4338 30.5328 131° Southeast  Level Estimated
Wed 06:22:00 PM 40.3519 30.6544 131° Southeast  Level Estimated
Wed 06:23:00 PM 40.2699 30.7756 132° Southeast  Level Estimated
Wed 06:24:00 PM 40.1877 30.8966 132° Southeast  Level Estimated
Wed 06:25:00 PM 40.1054 31.0172 132° Southeast  Level Estimated
Wed 06:26:00 PM 40.0230 31.1376 132° Southeast  Level Estimated
Wed 06:27:00 PM 39.9404 31.2577 132° Southeast  Level Estimated
Wed 06:28:00 PM 39.8577 31.3775 132° Southeast  Level Estimated
Wed 06:29:00 PM 39.7749 31.4970 132° Southeast  Level Estimated
Wed 06:30:00 PM 39.6920 31.6162 132° Southeast  Level Estimated
Wed 06:31:00 PM 39.6090 31.7351 132° Southeast  Level Estimated
Wed 06:32:00 PM 39.5258 31.8538 132° Southeast  Level Estimated
Wed 06:33:00 PM 39.4425 31.9721 132° Southeast  Level Estimated
Wed 06:34:00 PM 39.3591 32.0902 132° Southeast  Level Estimated
Wed 06:35:00 PM 39.2756 32.2080 132° Southeast  Level Estimated
Wed 06:36:00 PM 39.1920 32.3255 133° Southeast  Level Estimated
Wed 06:37:00 PM 39.1082 32.4427 133° Southeast  Level Estimated
Wed 06:38:00 PM 39.0243 32.5597 133° Southeast  Level Estimated
Wed 06:39:00 PM 38.9404 32.6763 133° Southeast  Level Estimated
Wed 06:40:00 PM 38.8563 32.7928 133° Southeast  Level Estimated
Wed 06:41:00 PM 38.7720 32.9089 133° Southeast  Level Estimated
Wed 06:42:00 PM 38.6877 33.0247 133° Southeast  Level Estimated
Wed 06:43:00 PM 38.6033 33.1403 133° Southeast  Level Estimated
Wed 06:44:00 PM 38.5187 33.2556 133° Southeast  Level Estimated
Wed 06:45:00 PM 38.4340 33.3707 133° Southeast  Level Estimated
Wed 06:46:00 PM 38.3492 33.4854 133° Southeast  Level Estimated
Wed 06:47:00 PM 38.2643 33.5999 133° Southeast  Level Estimated
Wed 06:48:00 PM 38.1793 33.7142 133° Southeast  Level Estimated
Wed 06:49:00 PM 38.0942 33.8281 133° Southeast  Level Estimated
Wed 06:50:00 PM 38.0090 33.9418 134° Southeast  Level Estimated
Wed 06:51:00 PM 37.9236 34.0552 134° Southeast  Level Estimated
Wed 06:52:00 PM 37.8382 34.1684 134° Southeast  Level Estimated
Wed 06:53:00 PM 37.7526 34.2813 134° Southeast  Level Estimated
Wed 06:54:00 PM 37.6670 34.3940 134° Southeast  Level Estimated
Wed 06:55:00 PM 37.5812 34.5064 134° Southeast  Level Estimated
Wed 06:56:00 PM 37.4953 34.6185 134° Southeast  Level Estimated
Wed 06:57:00 PM 37.4093 34.7304 134° Southeast  Level Estimated
Wed 06:58:00 PM 37.3232 34.8420 134° Southeast  Level Estimated
Wed 06:59:00 PM 37.2370 34.9533 134° Southeast  Level Estimated
Wed 07:00:00 PM 37.1507 35.0644 134° Southeast  Level Estimated
Wed 07:01:00 PM 37.0644 35.1753 134° Southeast  Level Estimated
Wed 07:02:00 PM 36.9822 35.2804 134° Southeast  Level Estimated
Wed 07:03:00 PM 36.9822 35.2804 202° Southwest  Level Estimated
Wed 07:04:00 PM 36.9822 35.2804 202° Southwest  Level Estimated
Wed 07:05:00 PM 36.9822 35.2804 202° Southwest  Level Estimated
Wed 07:06:00 PM 36.9822 35.2804 202° Southwest  Level Estimated
Wed 07:07:00 PM 36.9822 35.2804 202° Southwest  Level Estimated
Wed 07:08:00 PM 36.9822 35.2804 202° Southwest  Level Estimated
Wed 07:09:00 PM 36.9822 35.2804 202° Southwest  Level Estimated
Wed 07:10:00 PM 36.9822 35.2804 202° Southwest  Level Estimated
Wed 07:11:00 PM 36.9822 35.2804 202° Southwest  Level Estimated
Wed 07:12:00 PM 36.9822 35.2804 202° Southwest  Level Estimated
Wed 07:13:00 PM 36.9822 35.2804 202° Southwest  Level Estimated
Wed 07:14:00 PM 36.9822 35.2804 202° Southwest  Level Estimated
Wed 07:15:00 PM 36.9822 35.2804 202° Southwest  Level Estimated
Wed 07:16:00 PM 36.9822 35.2804 202° Southwest  Level Estimated
Wed 07:17:00 PM 36.9822 35.2804 202° Southwest  Level Estimated
Wed 07:18:00 PM 36.9822 35.2804 202° Southwest  Level Estimated

Login

Don't have an account? Register now (free) for customized features, flight alerts, and more!